CheckWX is a tool to help pilots better visualize weather data.  It is not intended as a substitute for an official pre-flight weather briefing.

01:20:58 UTC

EGFF METAR
Cardiff International Airport
Cardiff, United Kingdom
Current

31 mins ago

EGFF 150050Z AUTO VRB02KT 9999 OVC015 10/09 Q1002
Observed
Oct-15 @ 00:50 UTC
Wind
  • Variable at 2 KTS
Visibility
10,000+ meters
Flight Rules
MVFR
Cloud Levels
  • Overcast at 1,500' AGL
Temperature
10°C / 50°F
Dewpoint
C / 48°F
Humidity
94%
Altimeter
29.59" Hg
Pressure
1001.92 hPa
Previous

1 hour ago

EGFF 150020Z AUTO 03004KT 9999 OVC016 10/09 Q1002
Observed
Oct-15 @ 00:20 UTC
Wind
  • 030° at 4 KTS
Visibility
10,000+ meters
Flight Rules
MVFR
Cloud Levels
  • Overcast at 1,600' AGL
Temperature
10°C / 50°F
Dewpoint
C / 48°F
Humidity
94%
Altimeter
29.59" Hg
Pressure
1001.92 hPa
Previous

2 hours ago

EGFF 142350Z AUTO 02004KT 9999 OVC016 10/10 Q1002
Observed
Oct-14 @ 23:50 UTC
Wind
  • 020° at 4 KTS
Visibility
10,000+ meters
Flight Rules
MVFR
Cloud Levels
  • Overcast at 1,600' AGL
Temperature
10°C / 50°F
Dewpoint
10°C / 50°F
Humidity
100%
Altimeter
29.59" Hg
Pressure
1001.92 hPa